• Join FlightAware (Why Join?)
  • Login
  • US Flag 
04:45AM EDT


 

Airport Tracker/Info


-or-


 

Live Flight TrackerFlight Track Log ✈ CPT1940 ✈ 25-Oct-2013 ✈ KCPR - KBFF

Flight Track Log - Related Links

Times and Time Zones

All times are in EDT time to prevent confusion due to time zone crossing. See the CPT1940 flight status page for this flight to view local times or setup timezone preferences in your user account.

Time Position Orientation Groundspeed Altitude Reporting Facility
EDT Latitude Longitude Course Direction KTS MPH feet Rate Location/Type
08:57AM 42.9419 -106.4131 103° East 144 166 7,600  Level Denver Center
08:58AM 42.9378 -106.3561 96° East 138 159 8,300 540 Climbing Denver Center
08:59AM 42.9356 -106.3072 94° East 136 157 8,800 300 Climbing Denver Center
09:00AM 42.9344 -106.2556 92° East 139 160 9,000 60 Climbing Denver Center
09:01AM 42.7845 -106.1058 113° Southeast  Level Estimated
09:01AM 42.9314 -106.1881 94° East 152 175 9,000  Level Denver Center
09:02AM 42.7735 -106.0416 103° East  Level FlightAware Approximate
09:02AM 42.9289 -106.1292 93° East 159 183 9,000  Level Denver Center
09:03AM 42.9281 -106.0689 91° East 163 188 9,000  Level Denver Center
09:04AM 42.9258 -105.9989 92° East 164 189 9,000  Level Denver Center
09:05AM 42.9239 -105.9392 93° East 165 190 9,000  Level Denver Center
09:06AM 42.9214 -105.8783 93° East 167 192 9,000  Level Denver Center
09:07AM 42.9144 -105.8089 98° East 167 192 9,000  Level Denver Center
09:08AM 42.8939 -105.7536 117° Southeast 167 192 9,000  Level Denver Center
09:09AM 42.8719 -105.6886 115° Southeast 168 193 9,000  Level Denver Center
09:10AM 42.8547 -105.6336 113° Southeast 167 192 9,000  Level Denver Center
09:11AM 42.8369 -105.5781 114° Southeast 168 193 9,000  Level Denver Center
09:12AM 42.8156 -105.5131 114° Southeast 168 193 9,000  Level Denver Center
09:13AM 42.7975 -105.4583 114° Southeast 167 192 9,000  Level Denver Center
09:14AM 42.7797 -105.4028 114° Southeast 166 191 9,000  Level Denver Center
09:15AM 42.7589 -105.3383 114° Southeast 167 192 9,000  Level Denver Center
09:16AM 42.7408 -105.2839 114° Southeast 166 191 9,000  Level Denver Center
09:17AM 42.7233 -105.2289 113° Southeast 166 191 9,000  Level Denver Center
09:18AM 42.7025 -105.1656 114° Southeast 165 190 9,000  Level Denver Center
09:19AM 42.6842 -105.1114 115° Southeast 164 189 9,000  Level Denver Center
09:20AM 42.6658 -105.0561 114° Southeast 166 191 9,000  Level Denver Center
09:21AM 42.6442 -104.9908 114° Southeast 168 193 9,000  Level Denver Center
09:22AM 42.6261 -104.9361 114° Southeast 168 193 9,000  Level Denver Center
09:23AM 42.6078 -104.8817 115° Southeast 167 192 9,000  Level Denver Center
09:24AM 42.5867 -104.8172 114° Southeast 167 192 9,000  Level Denver Center
09:25AM 42.5686 -104.7611 114° Southeast 168 193 9,000  Level Denver Center
09:26AM 42.5469 -104.6975 115° Southeast 168 193 9,000  Level Denver Center
09:27AM 42.5278 -104.6422 115° Southeast 170 196 9,000  Level Denver Center
09:28AM 42.5056 -104.5900 120° Southeast 170 196 9,000  Level Denver Center
09:29AM 42.4739 -104.5375 129° Southeast 164 189 9,000  Level Denver Center
09:30AM 42.4450 -104.4917 130° Southeast 165 190 9,000  Level Denver Center
09:31AM 42.4114 -104.4381 130° Southeast 167 192 9,000  Level Denver Center
09:32AM 42.3819 -104.3917 131° Southeast 169 194 9,000  Level Denver Center
09:33AM 42.3531 -104.3453 130° Southeast 168 193 9,000  Level Denver Center
09:34AM 42.3200 -104.2878 128° Southeast 171 197 9,000  Level Denver Center
09:35AM 42.2931 -104.2381 126° Southeast 172 198 9,000  Level Denver Center
09:36AM 42.2650 -104.1889 128° Southeast 172 198 9,000  Level Denver Center
09:37AM 42.2319 -104.1319 128° Southeast 173 199 9,000  Level Denver Center
09:38AM 42.2039 -104.0836 128° Southeast 172 198 9,000  Level Denver Center
09:39AM 42.1750 -104.0347 129° Southeast 173 199 9,000  Level Denver Center
09:40AM 42.1419 -103.9769 128° Southeast 174 200 9,000 -180 Level Denver Center
09:41AM 42.1133 -103.9281 128° Southeast 173 199 8,700 -540 Descending Denver Center
09:42AM 42.0789 -103.8678 128° Southeast 178 205 8,000 -540 Descending Denver Center
09:43AM 42.0469 -103.8189 131° Southeast 182 209 7,700 -540 Descending Denver Center
09:44AM 42.0119 -103.7753 137° Southeast 179 206 7,000 -960 Descending Denver Center
09:45AM 41.9719 -103.7250 137° Southeast 177 204 5,800 -660 Descending Denver Center
09:46AM 41.9419 -103.6853 135° Southeast 167 192 5,700 -420 Descending Denver Center
09:47AM 41.9156 -103.6506 136° Southeast 151 174 5,000 -780 Descending Denver Center
09:49AM 41.8875 -103.6125 135° Southeast 135 155 4,200 -840 Descending Denver Center